createdAt,value
2022-12-16T00:01:36.223Z,99250.06
2022-12-16T00:06:37.652Z,99251.19
2022-12-16T00:11:39.419Z,99258.13
2022-12-16T00:16:40.875Z,99248.09
2022-12-16T00:21:42.230Z,99241.84
2022-12-16T00:26:43.547Z,99238.22
2022-12-16T00:31:48.063Z,99243.03
2022-12-16T00:36:49.724Z,99242.50
2022-12-16T00:41:51.532Z,99244.47
2022-12-16T00:46:53.304Z,99231.38
2022-12-16T00:51:56.434Z,99242.88
2022-12-16T00:56:57.790Z,99229.59
2022-12-16T01:01:59.312Z,99237.41
2022-12-16T01:07:00.945Z,99243.59
2022-12-16T01:12:02.595Z,99251.34
2022-12-16T01:17:03.948Z,99262.31
2022-12-16T01:22:05.325Z,99263.22
2022-12-16T01:27:06.687Z,99273.75
2022-12-16T01:32:12.346Z,99281.31
2022-12-16T01:37:13.799Z,99289.47
2022-12-16T01:42:17.811Z,99299.97
2022-12-16T01:47:30.565Z,99308.47
2022-12-16T01:52:36.954Z,99317.94
2022-12-16T01:57:47.073Z,99312.66
2022-12-16T02:02:49.398Z,99316.84
2022-12-16T02:08:12.178Z,99323.97
2022-12-16T02:13:13.847Z,99319.66
2022-12-16T02:18:37.320Z,99326.16
2022-12-16T02:24:04.879Z,99315.81
2022-12-16T02:29:24.644Z,99315.75
2022-12-16T02:34:37.703Z,99308.94
2022-12-16T02:39:52.255Z,99319.50
2022-12-16T02:45:01.696Z,99304.31
2022-12-16T02:50:03.531Z,99316.97
2022-12-16T02:55:09.003Z,99320.38
2022-12-16T03:00:17.092Z,99315.22
2022-12-16T03:05:27.896Z,99316.91
2022-12-16T03:10:34.340Z,99316.06
2022-12-16T03:15:36.537Z,99316.97
2022-12-16T03:20:50.008Z,99318.78
2022-12-16T03:25:57.108Z,99303.81
2022-12-16T03:31:12.370Z,99311.50
2022-12-16T03:36:21.359Z,99302.06
2022-12-16T03:41:24.336Z,99314.28
2022-12-16T03:46:26.452Z,99326.41
2022-12-16T03:51:27.847Z,99331.16
2022-12-16T03:56:29.256Z,99331.53
2022-12-16T04:01:30.861Z,99338.91
2022-12-16T04:06:32.431Z,99327.59
2022-12-16T04:11:52.525Z,99341.56
2022-12-16T04:17:13.761Z,99337.94
2022-12-16T04:22:39.776Z,99341.56
2022-12-16T04:27:46.750Z,99356.38
2022-12-16T04:33:14.961Z,99357.81
2022-12-16T04:38:35.721Z,99372.06
2022-12-16T04:43:55.605Z,99370.44
2022-12-16T04:49:15.940Z,99380.97
2022-12-16T04:54:35.732Z,99380.25
2022-12-16T04:59:55.669Z,99394.94
2022-12-16T05:05:15.681Z,99403.53
2022-12-16T05:10:35.600Z,99405.47
2022-12-16T05:15:55.568Z,99416.75
2022-12-16T05:21:20.261Z,99422.91
2022-12-16T05:26:40.360Z,99425.56
2022-12-16T05:32:02.078Z,99430.19
2022-12-16T05:37:21.814Z,99445.47
2022-12-16T05:42:41.776Z,99459.63
2022-12-16T05:48:01.557Z,99465.00
2022-12-16T05:53:21.392Z,99468.22
2022-12-16T05:58:41.743Z,99485.00
2022-12-16T06:04:01.701Z,99485.00
2022-12-16T06:09:22.101Z,99494.63
2022-12-16T06:14:42.249Z,99499.47
2022-12-16T06:20:09.637Z,99502.38
2022-12-16T06:25:29.491Z,99501.59
2022-12-16T06:30:49.506Z,99522.25
2022-12-16T06:36:09.648Z,99526.00
2022-12-16T06:41:29.832Z,99526.09
2022-12-16T06:46:49.956Z,99533.91
2022-12-16T06:52:09.892Z,99555.75
2022-12-16T06:57:46.801Z,99569.66
2022-12-16T07:03:06.890Z,99583.63
2022-12-16T07:08:27.119Z,99581.69
2022-12-16T07:13:47.196Z,99590.31
2022-12-16T07:19:07.211Z,99607.66
2022-12-16T07:24:27.560Z,99613.66
2022-12-16T07:29:47.592Z,99627.69
2022-12-16T07:35:07.600Z,99637.44
2022-12-16T07:40:28.161Z,99633.94
2022-12-16T07:45:48.178Z,99646.13
2022-12-16T07:51:08.308Z,99652.94
2022-12-16T07:56:29.398Z,99660.75
2022-12-16T08:01:49.419Z,99671.78
2022-12-16T08:07:09.617Z,99671.63
2022-12-16T08:12:29.784Z,99677.75
2022-12-16T08:17:49.998Z,99691.19
2022-12-16T08:23:13.278Z,99700.56
2022-12-16T08:28:33.430Z,99705.44
2022-12-16T08:33:53.362Z,99719.78
2022-12-16T08:39:13.205Z,99728.22
2022-12-16T08:44:32.907Z,99740.31
2022-12-16T08:49:56.085Z,99743.81
2022-12-16T08:55:21.526Z,99751.22
2022-12-16T09:00:44.922Z,99768.72
2022-12-16T09:06:04.812Z,99768.66
2022-12-16T09:11:24.630Z,99781.38
2022-12-16T09:16:44.546Z,99779.50
2022-12-16T09:22:04.669Z,99779.34
2022-12-16T09:27:24.699Z,99794.09
2022-12-16T09:32:44.624Z,99800.28
2022-12-16T09:38:06.191Z,99800.53
2022-12-16T09:43:51.545Z,99808.34
2022-12-16T09:49:29.616Z,99806.03
2022-12-16T09:54:54.282Z,99804.69
2022-12-16T10:00:26.959Z,99809.50
2022-12-16T10:05:57.321Z,99818.34
2022-12-16T10:11:30.315Z,99809.75
2022-12-16T10:17:06.104Z,99812.34
2022-12-16T10:22:41.917Z,99813.47
2022-12-16T10:28:06.881Z,99822.03
2022-12-16T10:33:30.502Z,99830.28
2022-12-16T10:38:54.317Z,99835.91
2022-12-16T10:44:17.785Z,99837.66
2022-12-16T10:49:38.990Z,99842.91
2022-12-16T10:55:06.371Z,99839.09
2022-12-16T11:00:35.163Z,99838.63
2022-12-16T11:05:55.205Z,99834.94
2022-12-16T11:11:16.414Z,99823.88
2022-12-16T11:16:42.862Z,99825.66
2022-12-16T11:22:03.427Z,99827.50
2022-12-16T11:27:31.536Z,99826.66
2022-12-16T11:32:52.243Z,99833.44
2022-12-16T11:38:14.767Z,99838.50
2022-12-16T11:43:37.201Z,99833.88
2022-12-16T11:49:03.326Z,99837.75
2022-12-16T11:54:52.153Z,99837.09
2022-12-16T12:00:19.702Z,99827.66
2022-12-16T12:05:51.911Z,99836.84
2022-12-16T12:11:29.525Z,99845.66
2022-12-16T12:17:04.407Z,99841.00
2022-12-16T12:22:47.325Z,99846.59
2022-12-16T12:28:15.860Z,99852.78
2022-12-16T12:33:50.201Z,99864.75
2022-12-16T12:39:34.731Z,99860.72
2022-12-16T12:45:11.575Z,99858.22
2022-12-16T12:50:46.576Z,99869.38
2022-12-16T12:56:29.921Z,99874.13
2022-12-16T13:01:54.175Z,99879.25
2022-12-16T13:07:19.711Z,99881.81
2022-12-16T13:12:49.365Z,99891.00
2022-12-16T13:18:18.145Z,99894.22
2022-12-16T13:23:53.021Z,99901.06
2022-12-16T13:29:38.358Z,99904.38
2022-12-16T13:34:58.503Z,99906.03
2022-12-16T13:40:25.101Z,99923.16
2022-12-16T13:46:24.153Z,99927.22
2022-12-16T13:52:03.885Z,99943.06
2022-12-16T13:57:25.990Z,99947.66
2022-12-16T14:02:51.323Z,99957.63
2022-12-16T14:08:11.960Z,99959.75
2022-12-16T14:14:05.049Z,99959.38
2022-12-16T14:19:51.371Z,99970.25
2022-12-16T14:25:12.036Z,99985.03
2022-12-16T14:30:44.326Z,100003.13
2022-12-16T14:36:08.213Z,99999.66
2022-12-16T14:41:39.105Z,100006.22
2022-12-16T14:46:59.484Z,100021.13
2022-12-16T14:52:19.695Z,100029.72
2022-12-16T14:57:49.326Z,100039.53
2022-12-16T15:03:11.888Z,100035.94
2022-12-16T15:08:32.982Z,100047.38
2022-12-16T15:13:57.816Z,100057.47
2022-12-16T15:19:22.465Z,100061.44
2022-12-16T15:24:44.060Z,100072.06
2022-12-16T15:30:04.364Z,100082.13
2022-12-16T15:35:24.587Z,100104.88
2022-12-16T15:40:52.805Z,100106.16
2022-12-16T15:46:12.878Z,100114.94
2022-12-16T15:51:42.945Z,100110.63
2022-12-16T15:57:04.224Z,100120.19
2022-12-16T16:02:32.352Z,100132.50
2022-12-16T16:07:52.207Z,100136.16
2022-12-16T16:13:12.232Z,100142.50
2022-12-16T16:18:32.155Z,100149.69
2022-12-16T16:23:52.157Z,100150.81
2022-12-16T16:29:12.193Z,100156.25
2022-12-16T16:34:32.433Z,100162.19
2022-12-16T16:39:53.193Z,100170.78
2022-12-16T16:45:15.811Z,100178.97
2022-12-16T16:50:36.007Z,100187.00
2022-12-16T16:55:56.183Z,100192.44
2022-12-16T17:01:16.571Z,100197.06
2022-12-16T17:06:36.701Z,100204.28
2022-12-16T17:11:57.460Z,100210.25
2022-12-16T17:17:17.789Z,100207.84
2022-12-16T17:22:38.042Z,100215.34
2022-12-16T17:28:02.770Z,100218.84
2022-12-16T17:33:31.878Z,100232.53
2022-12-16T17:38:57.339Z,100242.50
2022-12-16T17:44:17.618Z,100247.41
2022-12-16T17:49:37.737Z,100260.47
2022-12-16T17:54:58.165Z,100258.97
2022-12-16T18:00:18.376Z,100268.16
2022-12-16T18:05:44.272Z,100264.69
2022-12-16T18:11:05.053Z,100276.09
2022-12-16T18:16:25.378Z,100284.13
2022-12-16T18:21:45.800Z,100291.28
2022-12-16T18:27:06.048Z,100287.78
2022-12-16T18:32:28.317Z,100292.22
2022-12-16T18:37:50.708Z,100306.59
2022-12-16T18:43:10.856Z,100312.50
2022-12-16T18:48:31.056Z,100315.31
2022-12-16T18:53:51.218Z,100327.41
2022-12-16T18:59:11.918Z,100328.28
2022-12-16T19:04:31.843Z,100332.63
2022-12-16T19:09:51.971Z,100345.75
2022-12-16T19:15:12.439Z,100352.78
2022-12-16T19:20:33.281Z,100360.75
2022-12-16T19:25:53.470Z,100367.03
2022-12-16T19:31:14.057Z,100374.81
2022-12-16T19:36:34.112Z,100376.59
2022-12-16T19:41:56.204Z,100383.44
2022-12-16T19:47:16.637Z,100387.84
2022-12-16T19:52:37.171Z,100401.78
2022-12-16T19:57:57.913Z,100399.16
2022-12-16T20:03:17.990Z,100403.59
2022-12-16T20:08:37.948Z,100415.59
2022-12-16T20:13:57.844Z,100423.78
2022-12-16T20:19:18.159Z,100433.41
2022-12-16T20:24:38.070Z,100436.06
2022-12-16T20:30:00.193Z,100450.94
2022-12-16T20:35:21.459Z,100446.66
2022-12-16T20:40:41.604Z,100446.06
2022-12-16T20:46:01.849Z,100462.69
2022-12-16T20:57:05.845Z,100474.09
2022-12-16T21:02:33.812Z,100496.09
2022-12-16T21:07:54.156Z,100506.88
2022-12-16T21:13:27.825Z,100515.75
2022-12-16T21:18:47.704Z,100519.00
2022-12-16T21:24:07.762Z,100521.75
2022-12-16T21:29:27.664Z,100524.63
2022-12-16T21:34:47.846Z,100532.53
2022-12-16T21:40:07.947Z,100534.22
2022-12-16T21:45:28.184Z,100543.97
2022-12-16T21:50:48.307Z,100553.75
2022-12-16T21:56:11.611Z,100555.56
2022-12-16T22:01:31.553Z,100559.84
2022-12-16T22:06:51.869Z,100573.75
2022-12-16T22:12:12.316Z,100574.84
2022-12-16T22:17:32.613Z,100575.81
2022-12-16T22:22:52.729Z,100585.53
2022-12-16T22:28:12.463Z,100582.97
2022-12-16T22:33:32.706Z,100602.84
2022-12-16T22:36:21.554Z,100467.06
2022-12-16T22:38:52.461Z,100599.50
2022-12-16T22:44:12.358Z,100615.06
2022-12-16T22:49:34.138Z,100613.31
2022-12-16T22:54:54.000Z,100629.00
2022-12-16T23:00:14.243Z,100635.81
2022-12-16T23:05:34.369Z,100637.66
2022-12-16T23:10:54.739Z,100643.03
2022-12-16T23:16:17.108Z,100648.44
2022-12-16T23:21:38.341Z,100650.34
2022-12-16T23:26:58.454Z,100656.47
2022-12-16T23:32:18.584Z,100665.97
2022-12-16T23:37:38.482Z,100672.19
2022-12-16T23:42:58.456Z,100673.31
2022-12-16T23:48:23.908Z,100677.38
2022-12-16T23:53:44.387Z,100682.78
2022-12-16T23:59:07.767Z,100686.44
